Time;durP1;ratioP1;P1;durP2;ratioP2;P2;SDS_P1;SDS_P2;PMS_P1;PMS_P2;Temp;Humidity;BMP_temperature;BMP_pressure;BME280_temperature;BME280_humidity;BME280_pressure;Samples;Min_cycle;Max_cycle;Signal;HPM_P1;HPM_P2
2022/04/30 00:00:10;;;;;;;11.07;7.50;;;;;;;8.58;81.14;101842.22;700707;28;1077;-43
2022/04/30 00:00:33;;;;;;;10.52;7.30;;;;;;;8.62;80.88;101841.44;702928;28;1113;-44
2022/04/30 00:00:57;;;;;;;9.40;7.10;;;;;;;8.78;79.86;101839.22;701256;28;4270;-44
2022/04/30 00:01:19;;;;;;;10.85;7.28;;;;;;;8.77;79.19;101846.13;701681;28;1082;-44
2022/04/30 00:01:39;;;;;;;10.75;7.30;;;;;;;8.66;79.32;101843.28;701104;28;1145;-45
2022/04/30 00:01:59;;;;;;;10.98;7.43;;;;;;;8.74;79.29;101840.84;700636;28;1386;-44
2022/04/30 00:02:20;;;;;;;10.03;7.30;;;;;;;8.66;78.07;101839.81;701886;28;1243;-44
2022/04/30 00:02:40;;;;;;;10.80;7.15;;;;;;;8.73;77.77;101846.03;701010;28;1416;-43
2022/04/30 00:03:01;;;;;;;11.97;7.37;;;;;;;8.76;78.97;101838.28;702102;28;1379;-44
2022/04/30 00:03:26;;;;;;;10.95;7.45;;;;;;;8.76;78.07;101843.50;701469;28;1237;-44
2022/04/30 00:03:47;;;;;;;10.43;7.50;;;;;;;8.79;78.41;101841.84;701344;28;4353;-44
2022/04/30 00:04:07;;;;;;;11.60;7.47;;;;;;;8.75;78.02;101842.63;701516;28;1109;-44
2022/04/30 00:04:28;;;;;;;9.95;7.30;;;;;;;8.72;78.24;101836.44;702135;28;1295;-43
2022/04/30 00:04:48;;;;;;;10.07;7.07;;;;;;;8.78;78.40;101842.69;700942;28;998;-43
2022/04/30 00:05:09;;;;;;;12.40;7.88;;;;;;;8.77;78.08;101837.44;701808;28;1413;-45
2022/04/30 00:05:31;;;;;;;11.05;7.72;;;;;;;8.76;78.66;101844.34;702954;28;1156;-43
2022/04/30 00:05:51;;;;;;;10.05;7.18;;;;;;;8.66;79.59;101845.03;701804;28;986;-43
2022/04/30 00:06:12;;;;;;;10.68;7.20;;;;;;;8.73;78.19;101838.22;701894;28;1125;-44
2022/04/30 00:06:32;;;;;;;10.53;7.10;;;;;;;8.77;78.42;101842.66;701276;28;1322;-43
2022/04/30 00:06:52;;;;;;;10.55;7.13;;;;;;;8.71;78.86;101835.59;700288;28;4687;-44
2022/04/30 00:07:16;;;;;;;12.87;7.20;;;;;;;8.76;78.13;101840.88;702344;28;1184;-44
2022/04/30 00:07:37;;;;;;;10.82;7.65;;;;;;;8.69;78.04;101842.47;701710;28;1193;-44
2022/04/30 00:07:57;;;;;;;10.50;7.70;;;;;;;8.66;78.41;101838.06;701776;28;1127;-44
2022/04/30 00:08:18;;;;;;;9.43;7.20;;;;;;;8.66;78.49;101843.28;702428;28;1371;-45
2022/04/30 00:08:38;;;;;;;11.55;7.30;;;;;;;8.64;79.14;101841.47;701343;28;1225;-43
2022/04/30 00:08:58;;;;;;;10.80;7.13;;;;;;;8.65;79.18;101838.03;701810;28;1110;-43
2022/04/30 00:09:19;;;;;;;10.20;7.00;;;;;;;8.62;78.88;101840.59;701154;28;1363;-43
2022/04/30 00:09:39;;;;;;;10.27;7.10;;;;;;;8.56;80.28;101843.94;701293;28;1382;-43
2022/04/30 00:10:00;;;;;;;10.43;7.30;;;;;;;8.55;79.41;101838.69;701295;28;4329;-44
2022/04/30 00:10:20;;;;;;;10.98;7.57;;;;;;;8.54;79.46;101843.00;698112;28;1162;-43
2022/04/30 00:10:41;;;;;;;11.80;7.47;;;;;;;8.50;80.63;101835.97;697556;28;1324;-43
2022/04/30 00:11:03;;;;;;;11.00;6.95;;;;;;;8.42;78.73;101841.00;700516;28;1055;-45
2022/04/30 00:11:23;;;;;;;12.35;7.38;;;;;;;8.47;80.04;101839.41;698751;28;1078;-44
2022/04/30 00:11:43;;;;;;;12.25;7.55;;;;;;;8.51;79.76;101837.72;698107;28;1117;-44
2022/04/30 00:12:04;;;;;;;10.30;7.40;;;;;;;8.52;80.49;101836.91;699355;28;1126;-45
2022/04/30 00:12:25;;;;;;;10.82;7.40;;;;;;;8.49;80.94;101834.22;701392;28;1304;-43
2022/04/30 00:12:45;;;;;;;10.18;7.53;;;;;;;8.44;80.80;101841.88;701595;28;4430;-45
2022/04/30 00:13:07;;;;;;;10.67;8.00;;;;;;;8.45;81.41;101838.47;699680;28;1035;-43
2022/04/30 00:13:28;;;;;;;11.82;7.95;;;;;;;8.53;79.39;101836.06;702364;28;1143;-44
2022/04/30 00:13:48;;;;;;;10.95;7.75;;;;;;;8.49;79.77;101840.31;701581;27;1114;-44
2022/04/30 00:14:09;;;;;;;9.65;7.10;;;;;;;8.43;79.01;101840.16;703170;27;1260;-45
2022/04/30 00:14:30;;;;;;;10.93;7.30;;;;;;;8.41;79.60;101840.94;701620;28;1561;-45
2022/04/30 00:14:51;;;;;;;10.82;7.32;;;;;;;8.38;79.99;101843.47;700878;28;1657;-44
2022/04/30 00:15:12;;;;;;;11.93;7.70;;;;;;;8.34;79.69;101834.72;702232;28;963;-43
2022/04/30 00:15:34;;;;;;;11.48;7.53;;;;;;;8.43;80.64;101841.84;701264;28;1157;-45
2022/04/30 00:15:54;;;;;;;10.75;7.32;;;;;;;8.49;78.82;101839.44;702289;27;4473;-45
2022/04/30 00:16:15;;;;;;;11.53;7.23;;;;;;;8.41;79.90;101836.63;701506;28;1305;-43
2022/04/30 00:16:35;;;;;;;10.55;7.20;;;;;;;8.35;79.59;101836.50;701901;28;1124;-43
2022/04/30 00:16:56;;;;;;;11.30;7.65;;;;;;;8.36;80.50;101838.22;702970;28;1052;-44
2022/04/30 00:17:17;;;;;;;10.80;7.70;;;;;;;8.41;79.95;101840.94;702093;28;1306;-44
2022/04/30 00:17:37;;;;;;;11.40;7.50;;;;;;;8.37;81.36;101834.78;703503;28;1070;-43
2022/04/30 00:17:57;;;;;;;11.52;7.45;;;;;;;8.40;80.16;101836.59;701634;28;1109;-44
2022/04/30 00:18:18;;;;;;;11.53;7.50;;;;;;;8.41;80.90;101839.22;702269;28;1061;-45
2022/04/30 00:18:38;;;;;;;11.13;7.47;;;;;;;8.46;81.22;101832.44;702245;28;1104;-45
2022/04/30 00:18:59;;;;;;;12.75;8.00;;;;;;;8.40;79.96;101837.44;700410;28;4442;-43
2022/04/30 00:19:21;;;;;;;9.95;7.57;;;;;;;8.33;79.41;101831.25;700921;28;1133;-43
2022/04/30 00:19:42;;;;;;;9.57;6.93;;;;;;;8.27;79.51;101828.47;701032;28;1909;-43
2022/04/30 00:20:04;;;;;;;9.68;7.22;;;;;;;8.32;79.67;101834.69;701794;28;1865;-43
2022/04/30 00:20:25;;;;;;;10.45;7.35;;;;;;;8.28;79.79;101835.47;701233;28;1178;-45
2022/04/30 00:20:46;;;;;;;10.57;6.95;;;;;;;8.27;80.71;101830.22;701182;28;1339;-44
2022/04/30 00:21:07;;;;;;;10.32;6.78;;;;;;;8.31;82.40;101832.06;701569;28;997;-43
2022/04/30 00:21:27;;;;;;;9.90;7.60;;;;;;;8.30;82.12;101836.34;701610;28;1216;-44
2022/04/30 00:21:51;;;;;;;10.13;7.57;;;;;;;8.28;81.77;101829.34;700996;28;4260;-44
2022/04/30 00:22:11;;;;;;;11.15;7.50;;;;;;;8.30;82.26;101843.31;702289;28;1133;-44
2022/04/30 00:22:32;;;;;;;11.27;7.72;;;;;;;8.36;81.61;101840.81;701568;28;1069;-45
2022/04/30 00:22:52;;;;;;;9.83;7.17;;;;;;;8.38;80.83;101839.16;701691;28;1065;-43
2022/04/30 00:23:20;;;;;;;10.40;7.00;;;;;;;8.28;80.69;101831.94;700368;28;3870;-43
2022/04/30 00:23:41;;;;;;;11.00;7.03;;;;;;;8.25;81.83;101835.41;702869;28;1007;-44
2022/04/30 00:24:02;;;;;;;11.73;7.70;;;;;;;8.31;81.05;101834.66;703010;28;1049;-45
2022/04/30 00:24:24;;;;;;;11.57;7.60;;;;;;;8.29;81.47;101836.31;703095;28;1169;-45
2022/04/30 00:24:45;;;;;;;11.85;7.53;;;;;;;8.26;81.90;101836.25;701746;28;4261;-43
2022/04/30 00:25:07;;;;;;;10.23;7.35;;;;;;;8.30;81.55;101830.28;699702;28;1104;-43
2022/04/30 00:25:27;;;;;;;10.55;7.28;;;;;;;8.26;81.63;101836.25;697916;28;1117;-44
2022/04/30 00:25:53;;;;;;;10.33;7.53;;;;;;;8.35;80.27;101836.50;697943;28;1017;-44
2022/04/30 00:26:14;;;;;;;11.25;7.25;;;;;;;8.31;80.23;101834.66;699860;28;1094;-43
2022/04/30 00:26:37;;;;;;;10.40;7.40;;;;;;;8.26;80.32;101831.91;699965;28;1090;-44
2022/04/30 00:27:02;;;;;;;9.52;6.78;;;;;;;8.26;82.22;101831.06;698027;28;946;-45
2022/04/30 00:27:23;;;;;;;9.95;7.18;;;;;;;8.24;82.50;101838.84;698399;28;1488;-43
2022/04/30 00:27:43;;;;;;;10.48;7.60;;;;;;;8.17;81.10;101837.81;697982;28;4350;-43
2022/04/30 00:28:06;;;;;;;10.53;7.57;;;;;;;8.12;80.79;101830.72;698839;28;1195;-44
2022/04/30 00:28:26;;;;;;;10.25;7.15;;;;;;;8.16;81.32;101833.44;699401;28;1288;-43
2022/04/30 00:28:49;;;;;;;10.43;7.30;;;;;;;8.18;81.86;101831.75;699791;28;998;-44
2022/04/30 00:29:10;;;;;;;11.10;7.40;;;;;;;8.11;82.04;101836.78;702071;28;1006;-45
2022/04/30 00:29:31;;;;;;;12.07;7.53;;;;;;;8.16;81.89;101827.34;702583;28;1128;-44
2022/04/30 00:29:53;;;;;;;10.65;7.50;;;;;;;8.24;81.67;101830.13;702305;28;866;-44
2022/04/30 00:30:14;;;;;;;10.32;7.80;;;;;;;8.16;81.07;101830.81;702069;28;1144;-44
2022/04/30 00:30:35;;;;;;;10.45;7.90;;;;;;;8.18;81.15;101828.25;702809;28;1046;-43
2022/04/30 00:30:56;;;;;;;10.50;7.57;;;;;;;8.18;81.92;101834.38;701787;28;4815;-44
2022/04/30 00:31:16;;;;;;;9.75;7.38;;;;;;;8.19;81.94;101827.41;700952;28;1201;-46
2022/04/30 00:31:38;;;;;;;10.77;7.87;;;;;;;8.24;80.84;101825.81;700649;28;1039;-43
2022/04/30 00:32:02;;;;;;;11.73;7.95;;;;;;;8.21;81.51;101835.25;702155;28;1196;-43
2022/04/30 00:32:24;;;;;;;11.23;7.75;;;;;;;8.13;80.58;101825.53;701502;28;1069;-44
2022/04/30 00:32:44;;;;;;;10.82;7.28;;;;;;;8.13;81.52;101830.75;701667;28;1208;-45
2022/04/30 00:33:09;;;;;;;12.83;7.37;;;;;;;8.10;81.59;101830.69;702306;28;1055;-43
2022/04/30 00:33:30;;;;;;;11.18;7.45;;;;;;;8.08;81.83;101831.50;701905;28;1094;-43
2022/04/30 00:33:51;;;;;;;11.38;7.60;;;;;;;8.02;81.97;101827.88;700714;28;4491;-45
2022/04/30 00:34:11;;;;;;;10.23;7.38;;;;;;;7.97;81.78;101834.69;701482;28;1070;-45
2022/04/30 00:34:32;;;;;;;10.40;7.32;;;;;;;8.02;82.36;101833.09;701459;28;1553;-44
2022/04/30 00:34:53;;;;;;;9.90;7.17;;;;;;;8.01;82.38;101827.84;701409;28;1029;-44
2022/04/30 00:35:14;;;;;;;10.25;7.60;;;;;;;8.07;82.95;101835.84;700660;28;1405;-43
2022/04/30 00:35:38;;;;;;;10.70;7.00;;;;;;;8.09;82.94;101838.47;701160;28;1070;-43
2022/04/30 00:35:59;;;;;;;10.70;7.50;;;;;;;8.03;81.30;101831.38;701354;28;1124;-45
2022/04/30 00:36:20;;;;;;;12.38;7.70;;;;;;;8.04;81.39;101827.91;701523;28;847;-44
2022/04/30 00:36:40;;;;;;;13.13;8.05;;;;;;;8.04;82.26;101829.66;700769;28;1177;-43
2022/04/30 00:37:03;;;;;;;11.87;7.50;;;;;;;8.00;81.67;101833.91;702452;28;4321;-43
2022/04/30 00:37:23;;;;;;;11.18;7.10;;;;;;;8.06;82.05;101834.06;701724;28;1345;-43
2022/04/30 00:37:44;;;;;;;11.32;7.30;;;;;;;7.99;81.31;101826.94;702349;28;980;-45
2022/04/30 00:38:05;;;;;;;11.93;7.70;;;;;;;7.98;81.43;101835.59;702511;28;1085;-43
2022/04/30 00:38:25;;;;;;;11.07;7.72;;;;;;;7.92;81.18;101831.13;703179;28;1136;-43
2022/04/30 00:38:45;;;;;;;11.07;7.43;;;;;;;7.89;81.80;101836.25;702533;28;1090;-43
2022/04/30 00:39:06;;;;;;;12.13;7.53;;;;;;;7.87;82.29;101826.66;702948;28;1109;-44
2022/04/30 00:39:27;;;;;;;11.63;7.40;;;;;;;7.91;82.95;101833.69;701893;28;1699;-44
2022/04/30 00:39:48;;;;;;;10.73;7.53;;;;;;;7.90;83.12;101832.78;700806;28;4465;-44
2022/04/30 00:40:09;;;;;;;11.33;7.70;;;;;;;7.94;83.51;101829.41;701185;28;1277;-44
2022/04/30 00:40:31;;;;;;;13.50;7.72;;;;;;;7.90;81.95;101827.59;702596;28;1351;-45
2022/04/30 00:40:51;;;;;;;10.95;7.60;;;;;;;7.81;82.04;101827.38;701333;28;951;-44
2022/04/30 00:41:11;;;;;;;10.00;7.10;;;;;;;7.82;82.66;101830.00;702298;28;1089;-44
2022/04/30 00:41:34;;;;;;;11.00;7.65;;;;;;;7.82;83.82;101830.00;701485;28;1081;-44
2022/04/30 00:41:57;;;;;;;10.67;7.47;;;;;;;7.81;83.79;101830.84;702057;28;1152;-45
2022/04/30 00:42:17;;;;;;;11.27;7.63;;;;;;;7.90;83.44;101831.91;702013;28;1952;-43
2022/04/30 00:42:38;;;;;;;11.00;7.37;;;;;;;7.89;83.64;101828.44;701645;28;1155;-43
2022/04/30 00:42:58;;;;;;;10.68;7.20;;;;;;;7.90;83.62;101821.50;701552;28;4269;-44
2022/04/30 00:43:19;;;;;;;10.95;7.40;;;;;;;7.94;83.58;101823.34;702405;28;1120;-44
2022/04/30 00:43:47;;;;;;;10.70;7.13;;;;;;;7.91;84.01;101825.88;702330;28;1104;-44
2022/04/30 00:44:07;;;;;;;12.45;7.43;;;;;;;7.88;84.46;101829.28;701625;28;1362;-43
2022/04/30 00:44:28;;;;;;;10.27;7.23;;;;;;;7.84;84.00;101824.84;701283;28;1257;-44
2022/04/30 00:44:49;;;;;;;11.57;7.45;;;;;;;7.88;84.12;101820.56;701539;28;1216;-44
2022/04/30 00:45:10;;;;;;;11.32;7.55;;;;;;;7.94;84.10;101825.94;701492;28;1336;-44
2022/04/30 00:45:30;;;;;;;11.18;7.72;;;;;;;7.91;83.21;101828.47;701081;28;881;-43
2022/04/30 00:45:51;;;;;;;12.00;7.73;;;;;;;7.92;82.56;101827.63;701670;28;4265;-44
2022/04/30 00:46:15;;;;;;;11.80;7.75;;;;;;;7.85;82.97;101834.41;701137;28;1192;-45
2022/04/30 00:46:36;;;;;;;11.05;7.82;;;;;;;7.73;84.22;101828.91;700598;28;1086;-43
2022/04/30 00:46:56;;;;;;;11.25;7.78;;;;;;;7.76;84.25;101828.97;701591;28;1117;-45
2022/04/30 00:47:19;;;;;;;12.63;7.90;;;;;;;7.77;84.14;101831.59;701765;28;1132;-45
2022/04/30 00:47:39;;;;;;;11.40;7.60;;;;;;;7.73;83.94;101829.78;701183;28;1193;-43
2022/04/30 00:48:00;;;;;;;11.10;7.60;;;;;;;7.77;83.60;101826.41;699155;28;1104;-43
2022/04/30 00:48:20;;;;;;;10.63;7.82;;;;;;;7.82;83.54;101826.50;697642;28;1237;-44
2022/04/30 00:48:42;;;;;;;10.85;8.10;;;;;;;7.82;83.89;101824.81;697370;28;1256;-45
2022/04/30 00:49:04;;;;;;;11.95;7.85;;;;;;;7.80;84.41;101823.88;697123;28;4507;-43
2022/04/30 00:49:24;;;;;;;10.70;7.70;;;;;;;7.83;84.09;101826.53;696828;28;1182;-44
2022/04/30 00:49:46;;;;;;;9.63;7.80;;;;;;;7.76;83.73;101832.44;698524;28;1277;-43
2022/04/30 00:50:07;;;;;;;11.20;7.72;;;;;;;7.65;83.51;101826.09;701068;28;1097;-44
2022/04/30 00:50:30;;;;;;;11.48;8.00;;;;;;;7.74;84.04;101831.53;702261;28;1279;-45
2022/04/30 00:50:53;;;;;;;11.23;8.05;;;;;;;7.79;84.01;101824.69;701488;28;1594;-43
2022/04/30 00:51:16;;;;;;;11.98;8.20;;;;;;;7.83;83.56;101825.69;702907;28;1058;-43
2022/04/30 00:51:39;;;;;;;12.52;8.18;;;;;;;7.80;84.24;101825.59;702450;28;1077;-44
2022/04/30 00:52:02;;;;;;;11.30;7.80;;;;;;;7.77;83.97;101828.13;701045;28;4510;-43
2022/04/30 00:52:25;;;;;;;11.50;7.50;;;;;;;7.71;84.22;101823.63;702128;28;1103;-44
2022/04/30 00:52:47;;;;;;;12.38;7.82;;;;;;;7.65;83.74;101816.53;702152;28;1116;-45
2022/04/30 00:53:09;;;;;;;11.18;7.97;;;;;;;7.62;83.65;101833.81;702888;28;1283;-45
2022/04/30 00:53:31;;;;;;;12.07;8.05;;;;;;;7.62;83.75;101826.00;701152;28;1058;-45
2022/04/30 00:53:53;;;;;;;12.30;7.97;;;;;;;7.66;84.76;101822.66;702380;28;1120;-44
2022/04/30 00:54:17;;;;;;;11.35;7.80;;;;;;;7.63;86.01;101823.44;700641;28;1062;-44
2022/04/30 00:54:40;;;;;;;12.55;8.02;;;;;;;7.62;84.76;101820.81;700950;28;1237;-43
2022/04/30 00:55:02;;;;;;;12.23;7.57;;;;;;;7.71;83.81;101823.63;701862;28;4463;-43
2022/04/30 00:55:25;;;;;;;12.80;8.20;;;;;;;7.67;83.44;101821.81;701239;28;1069;-44
2022/04/30 00:55:47;;;;;;;11.63;7.90;;;;;;;7.70;84.17;101823.59;702060;28;1756;-43
2022/04/30 00:56:12;;;;;;;11.70;7.95;;;;;;;7.62;83.91;101826.88;699569;28;1258;-44
2022/04/30 00:56:36;;;;;;;12.90;8.00;;;;;;;7.66;83.41;101825.25;700440;28;1454;-43
2022/04/30 00:56:59;;;;;;;11.65;8.05;;;;;;;7.65;83.61;101818.28;702001;28;4287;-43
2022/04/30 00:57:23;;;;;;;11.45;8.20;;;;;;;7.70;84.00;101821.88;700573;28;819;-43
2022/04/30 00:57:44;;;;;;;10.10;7.38;;;;;;;7.67;84.77;101825.28;701255;28;4451;-44
2022/04/30 00:58:05;;;;;;;11.50;7.70;;;;;;;7.72;85.00;101828.00;701241;28;1156;-44
2022/04/30 00:58:29;;;;;;;12.82;8.15;;;;;;;7.70;84.93;101821.88;700846;28;1117;-43
2022/04/30 00:58:49;;;;;;;12.27;8.05;;;;;;;7.61;84.97;101826.84;701645;28;1138;-44
2022/04/30 00:59:17;;;;;;;12.83;7.90;;;;;;;7.60;85.48;101822.47;699511;28;1066;-43
2022/04/30 00:59:39;;;;;;;12.95;8.23;;;;;;;7.57;86.31;101827.59;699558;28;1022;-44
2022/04/30 01:00:00;;;;;;;12.77;8.48;;;;;;;7.62;86.61;101823.41;700329;28;1913;-43
2022/04/30 01:00:21;;;;;;;13.48;8.50;;;;;;;7.71;85.48;101828.84;701112;28;1073;-44
2022/04/30 01:00:59;;;;;;;12.43;8.27;;;;;;;7.78;84.97;101825.56;701001;28;4418;-44
2022/04/30 01:01:36;;;;;;;10.77;8.07;;;;;;;7.76;85.08;101824.63;701237;28;1165;-44
2022/04/30 01:02:09;;;;;;;11.40;8.40;;;;;;;7.80;83.76;101830.81;701626;28;1098;-44
2022/04/30 01:02:50;;;;;;;11.10;7.70;;;;;;;7.83;83.67;101823.94;699967;28;1280;-43
2022/04/30 01:03:29;;;;;;;11.60;7.82;;;;;;;7.74;84.74;101820.22;699738;28;1081;-44
2022/04/30 01:04:07;;;;;;;11.88;8.10;;;;;;;7.85;84.13;101826.59;700786;28;5041;-43
2022/04/30 01:04:28;;;;;;;13.37;8.47;;;;;;;7.88;83.43;101828.38;701074;28;1174;-44
2022/04/30 01:04:49;;;;;;;12.70;8.00;;;;;;;7.87;83.59;101827.50;702383;28;1086;-44
2022/04/30 01:05:10;;;;;;;12.57;8.00;;;;;;;7.93;83.70;101826.78;701462;28;1082;-43
2022/04/30 01:05:30;;;;;;;12.32;8.32;;;;;;;7.98;83.60;101825.19;701919;28;764;-44
2022/04/30 01:05:51;;;;;;;11.33;8.20;;;;;;;7.98;82.62;101831.25;701432;28;1434;-45
2022/04/30 01:06:12;;;;;;;11.60;8.27;;;;;;;7.84;82.78;101819.63;701133;28;1129;-43
2022/04/30 01:06:52;;;;;;;11.13;7.82;;;;;;;7.86;82.82;101817.94;701550;28;1042;-43
2022/04/30 01:07:12;;;;;;;12.10;8.15;;;;;;;7.81;83.36;101815.22;700724;28;4849;-44
2022/04/30 01:07:33;;;;;;;11.02;7.88;;;;;;;7.79;83.08;101819.50;702355;28;1355;-43
2022/04/30 01:07:53;;;;;;;12.27;8.05;;;;;;;7.78;84.08;101820.38;702352;28;957;-43
2022/04/30 01:08:14;;;;;;;12.63;8.20;;;;;;;7.73;83.99;101821.97;701789;28;1121;-43
2022/04/30 01:08:37;;;;;;;12.43;8.25;;;;;;;7.65;84.61;101820.88;702057;28;1207;-43
2022/04/30 01:08:57;;;;;;;12.10;8.43;;;;;;;7.70;83.97;101823.59;702062;28;1288;-43
2022/04/30 01:09:25;;;;;;;13.40;8.50;;;;;;;7.69;84.52;101817.50;702024;28;1429;-43
2022/04/30 01:09:47;;;;;;;12.10;8.35;;;;;;;7.62;84.68;101820.81;701197;28;4356;-43
2022/04/30 01:10:08;;;;;;;11.98;8.32;;;;;;;7.57;84.55;101812.00;701158;28;1379;-44
2022/04/30 01:10:31;;;;;;;12.15;8.27;;;;;;;7.57;84.63;101822.41;701432;28;1129;-45
2022/04/30 01:10:51;;;;;;;11.40;8.10;;;;;;;7.56;84.33;101820.63;699776;28;1252;-43
2022/04/30 01:11:12;;;;;;;10.65;8.23;;;;;;;7.55;84.42;101816.28;702151;28;1307;-44
2022/04/30 01:11:34;;;;;;;10.93;8.23;;;;;;;7.57;85.35;101817.19;700941;28;1136;-43
2022/04/30 01:11:58;;;;;;;11.63;8.30;;;;;;;7.57;84.51;101815.47;702370;28;946;-43
2022/04/30 01:12:19;;;;;;;12.25;8.73;;;;;;;7.59;85.05;101815.53;702173;28;1171;-42
2022/04/30 01:12:40;;;;;;;12.32;8.45;;;;;;;7.58;84.93;101817.22;701755;28;1228;-43
2022/04/30 01:13:02;;;;;;;12.73;8.30;;;;;;;7.59;84.36;101820.75;701167;28;4441;-43
2022/04/30 01:13:23;;;;;;;12.40;8.27;;;;;;;7.53;84.90;101817.97;702001;28;1113;-44
2022/04/30 01:13:44;;;;;;;11.50;8.18;;;;;;;7.50;85.83;101822.25;702577;28;1093;-43
2022/04/30 01:14:04;;;;;;;9.93;7.90;;;;;;;7.57;85.06;101817.19;703002;27;1241;-46
2022/04/30 01:14:31;;;;;;;12.00;8.05;;;;;;;7.62;85.04;101820.81;702405;28;1133;-44
2022/04/30 01:14:52;;;;;;;12.63;8.40;;;;;;;7.72;84.77;101822.78;700004;28;1507;-43
2022/04/30 01:15:12;;;;;;;11.07;8.20;;;;;;;7.70;84.79;101824.50;700585;28;1335;-43
2022/04/30 01:15:34;;;;;;;11.67;8.40;;;;;;;7.65;84.88;101819.16;700786;28;1332;-45
2022/04/30 01:15:58;;;;;;;13.48;8.65;;;;;;;7.59;85.09;101820.75;699986;28;4617;-43
2022/04/30 01:16:18;;;;;;;12.18;7.93;;;;;;;7.49;85.35;101816.97;701649;28;1208;-43
2022/04/30 01:16:40;;;;;;;11.73;8.18;;;;;;;7.54;85.32;101822.31;702075;28;1528;-43
2022/04/30 01:17:06;;;;;;;12.35;8.23;;;;;;;7.57;84.65;101815.47;702794;28;1208;-44
2022/04/30 01:17:27;;;;;;;12.38;8.30;;;;;;;7.52;85.06;101821.38;702037;28;1124;-43
2022/04/30 01:17:47;;;;;;;11.00;8.23;;;;;;;7.50;85.58;101817.06;701633;28;1144;-44
2022/04/30 01:18:10;;;;;;;11.88;8.02;;;;;;;7.46;86.11;101820.41;701644;28;1283;-44
2022/04/30 01:18:34;;;;;;;13.15;8.50;;;;;;;7.42;86.29;101817.66;701215;28;1292;-43
2022/04/30 01:18:55;;;;;;;11.82;8.30;;;;;;;7.50;86.52;101816.16;701487;28;4647;-43
2022/04/30 01:19:20;;;;;;;11.73;8.40;;;;;;;7.54;85.70;101817.13;697529;28;3677;-45
2022/04/30 01:19:43;;;;;;;11.77;8.32;;;;;;;7.49;86.21;101815.28;696382;28;1110;-44
2022/04/30 01:20:04;;;;;;;12.07;8.55;;;;;;;7.52;86.58;101814.50;697587;28;1102;-44
2022/04/30 01:20:27;;;;;;;12.45;8.60;;;;;;;7.47;86.35;101814.34;698769;28;1291;-43
2022/04/30 01:20:52;;;;;;;12.35;8.35;;;;;;;7.44;86.69;101816.00;696791;28;1346;-46
2022/04/30 01:21:13;;;;;;;11.98;8.65;;;;;;;7.42;87.39;101817.66;698413;28;1010;-44
2022/04/30 01:21:35;;;;;;;12.05;8.35;;;;;;;7.42;86.76;101818.56;700749;28;1168;-44
2022/04/30 01:21:58;;;;;;;14.50;8.23;;;;;;;7.41;86.60;101816.78;700358;28;4323;-44
2022/04/30 01:22:40;;;;;;;12.07;7.75;;;;;;;7.37;87.08;101814.97;702345;28;1062;-44
2022/04/30 01:23:03;;;;;;;12.55;8.65;;;;;;;7.42;87.76;101818.56;701082;28;1030;-44
2022/04/30 01:23:26;;;;;;;12.00;8.50;;;;;;;7.50;86.80;101817.06;700031;28;930;-44
2022/04/30 01:23:46;;;;;;;13.00;8.70;;;;;;;7.48;87.04;101813.50;701035;28;1073;-45
2022/04/30 01:24:07;;;;;;;12.45;8.30;;;;;;;7.47;86.87;101810.88;702607;28;1101;-43
2022/04/30 01:24:30;;;;;;;12.65;8.55;;;;;;;7.42;87.96;101813.38;700964;28;1195;-43
2022/04/30 01:24:55;;;;;;;13.90;9.20;;;;;;;7.50;86.42;101817.06;700309;28;4516;-43
2022/04/30 01:25:17;;;;;;;14.20;8.68;;;;;;;7.49;86.13;101812.69;699849;28;1366;-44
2022/04/30 01:25:38;;;;;;;12.88;8.45;;;;;;;7.48;87.09;101808.31;700014;28;1086;-45
2022/04/30 01:26:01;;;;;;;12.70;8.93;;;;;;;7.50;86.34;101810.94;699625;28;1149;-45
2022/04/30 01:26:23;;;;;;;12.35;8.57;;;;;;;7.47;87.26;101810.88;700148;28;1087;-46
2022/04/30 01:26:43;;;;;;;12.63;8.35;;;;;;;7.48;87.14;101808.31;698702;28;969;-44
2022/04/30 01:27:07;;;;;;;12.53;8.40;;;;;;;7.47;87.17;101803.06;699697;28;1118;-43
2022/04/30 01:27:28;;;;;;;14.07;8.48;;;;;;;7.43;86.80;101809.03;700957;28;1180;-43
2022/04/30 01:27:50;;;;;;;12.63;8.25;;;;;;;7.42;86.05;101802.97;700233;28;4531;-43
2022/04/30 01:28:12;;;;;;;13.73;8.48;;;;;;;7.42;87.42;101813.38;700930;28;1143;-45
2022/04/30 01:28:32;;;;;;;12.43;8.32;;;;;;;7.42;87.40;101805.56;699413;28;1106;-44
2022/04/30 01:28:54;;;;;;;12.93;8.23;;;;;;;7.50;87.87;101811.84;698123;28;946;-44
2022/04/30 01:29:17;;;;;;;11.63;8.30;;;;;;;7.54;86.19;101806.72;698125;28;1260;-43
2022/04/30 01:29:38;;;;;;;13.30;8.57;;;;;;;7.52;86.47;101805.78;697736;28;1075;-44
2022/04/30 01:30:03;;;;;;;12.65;8.43;;;;;;;7.50;87.02;101809.25;696287;28;1133;-45
2022/04/30 01:30:24;;;;;;;13.23;8.55;;;;;;;7.45;87.90;101809.97;698640;28;1082;-44
2022/04/30 01:30:45;;;;;;;12.18;8.10;;;;;;;7.41;87.11;101808.13;697531;28;5465;-45
2022/04/30 01:37:22;;;;;;;13.52;8.38;;;;;;;7.43;87.00;101807.28;697857;28;1036;-44
2022/04/30 01:37:23;;;;;;;13.43;9.18;;;;;;;7.36;88.11;101807.13;700245;28;4675;-44
2022/04/30 01:37:43;;;;;;;12.63;8.40;;;;;;;7.32;87.89;101806.13;701625;28;871;-44
2022/04/30 01:38:04;;;;;;;12.80;8.70;;;;;;;7.39;88.12;101802.84;701268;28;1156;-45
2022/04/30 01:38:25;;;;;;;13.13;9.10;;;;;;;7.39;88.02;101808.06;700911;28;1103;-44
2022/04/30 01:38:47;;;;;;;13.85;8.25;;;;;;;7.35;88.07;101810.53;700722;28;2225;-44
2022/04/30 01:39:07;;;;;;;13.88;8.32;;;;;;;7.33;88.45;101810.50;700756;28;1054;-43
2022/04/30 01:39:27;;;;;;;13.50;8.40;;;;;;;7.37;88.88;101808.88;698668;28;1618;-43
2022/04/30 01:39:51;;;;;;;12.10;8.35;;;;;;;7.43;87.85;101812.50;697728;28;4527;-43
2022/04/30 01:40:15;;;;;;;12.35;8.27;;;;;;;7.41;87.52;101805.53;697905;28;966;-47
2022/04/30 01:40:38;;;;;;;11.65;8.40;;;;;;;7.39;88.84;101807.19;699754;28;1211;-46
2022/04/30 01:40:59;;;;;;;12.07;8.32;;;;;;;7.35;88.70;101806.22;702362;28;985;-43
2022/04/30 01:41:21;;;;;;;12.25;8.57;;;;;;;7.35;89.42;101806.22;700707;28;1152;-44
2022/04/30 01:41:43;;;;;;;11.07;8.20;;;;;;;7.32;88.14;101804.44;701440;28;1066;-44
2022/04/30 01:42:11;;;;;;;13.18;8.48;;;;;;;7.32;88.58;101809.63;701362;28;991;-44
2022/04/30 01:42:35;;;;;;;14.43;8.77;;;;;;;7.27;88.49;101810.31;700914;28;1276;-44
2022/04/30 01:43:00;;;;;;;12.30;8.23;;;;;;;7.25;87.67;101809.41;701562;28;4437;-44
2022/04/30 01:43:25;;;;;;;11.45;8.52;;;;;;;7.23;88.12;101803.31;701274;28;1138;-44
2022/04/30 01:43:53;;;;;;;13.02;8.48;;;;;;;7.22;88.49;101798.94;701863;28;1042;-44
2022/04/30 01:44:13;;;;;;;12.38;8.45;;;;;;;7.25;89.45;101809.41;701315;28;1577;-44
2022/04/30 01:44:34;;;;;;;12.13;8.57;;;;;;;7.25;89.88;101804.22;701672;28;1314;-44
2022/04/30 01:44:55;;;;;;;12.57;8.55;;;;;;;7.31;88.41;101799.16;700788;28;1244;-44
2022/04/30 01:45:18;;;;;;;13.55;8.88;;;;;;;7.28;89.38;101800.00;700992;28;1188;-44
2022/04/30 01:45:38;;;;;;;11.88;8.48;;;;;;;7.30;88.91;101807.84;702117;28;1113;-43
2022/04/30 01:46:01;;;;;;;12.07;8.70;;;;;;;7.29;88.96;101795.66;701990;28;4286;-43
2022/04/30 01:46:21;;;;;;;12.05;8.32;;;;;;;7.27;89.61;101802.53;700299;28;1030;-44
2022/04/30 01:46:42;;;;;;;13.17;8.27;;;;;;;7.32;88.89;101800.94;701934;28;1065;-43
2022/04/30 01:47:02;;;;;;;12.37;7.93;;;;;;;7.27;88.82;101800.81;702987;28;1077;-44
2022/04/30 01:47:24;;;;;;;11.90;8.32;;;;;;;7.30;89.48;101802.63;700963;28;935;-44
2022/04/30 01:47:46;;;;;;;13.05;8.25;;;;;;;7.27;88.75;101802.53;701441;28;1141;-44
2022/04/30 01:48:12;;;;;;;14.25;8.68;;;;;;;7.25;88.69;101799.00;700975;28;1118;-45
2022/04/30 01:48:33;;;;;;;12.70;8.60;;;;;;;7.25;89.22;101799.00;701097;28;1207;-44
2022/04/30 01:48:53;;;;;;;12.35;8.70;;;;;;;7.19;88.08;101804.06;701329;28;4541;-45
2022/04/30 01:49:16;;;;;;;12.43;8.10;;;;;;;7.28;89.38;101799.09;700371;28;1263;-44
2022/04/30 01:49:36;;;;;;;12.02;8.32;;;;;;;7.23;89.05;101805.91;702024;28;1097;-45
2022/04/30 01:49:56;;;;;;;12.53;8.30;;;;;;;7.21;89.54;101800.63;701266;28;1095;-44
2022/04/30 01:50:17;;;;;;;12.57;8.40;;;;;;;7.21;89.91;101811.03;701932;28;907;-44
2022/04/30 01:50:37;;;;;;;12.27;8.90;;;;;;;7.30;89.60;101802.63;702485;28;1172;-43
2022/04/30 01:50:57;;;;;;;13.03;9.10;;;;;;;7.28;88.22;101799.09;699681;28;1162;-43
2022/04/30 01:51:20;;;;;;;13.55;8.50;;;;;;;7.26;88.63;101800.78;700040;28;995;-44
2022/04/30 01:51:47;;;;;;;12.95;8.73;;;;;;;7.22;89.89;101801.53;696362;28;1094;-43